sensor_id;sensor_type;location;lat;lon;timestamp;P1;durP1;ratioP1;P2;durP2;ratioP2
80987;SDS011;70452;39.386;-3.210;2023-07-28T00:01:41;6.88;;;2.20;;
80987;SDS011;70452;39.386;-3.210;2023-07-28T00:04:12;9.70;;;2.60;;
80987;SDS011;70452;39.386;-3.210;2023-07-28T00:06:51;8.65;;;2.22;;
80987;SDS011;70452;39.386;-3.210;2023-07-28T00:09:34;9.95;;;2.08;;
80987;SDS011;70452;39.386;-3.210;2023-07-28T00:12:29;11.38;;;2.38;;
80987;SDS011;70452;39.386;-3.210;2023-07-28T00:15:12;8.07;;;2.47;;
80987;SDS011;70452;39.386;-3.210;2023-07-28T00:17:51;7.22;;;2.10;;
80987;SDS011;70452;39.386;-3.210;2023-07-28T00:20:47;8.30;;;2.00;;
80987;SDS011;70452;39.386;-3.210;2023-07-28T00:23:32;9.60;;;2.65;;
80987;SDS011;70452;39.386;-3.210;2023-07-28T00:26:08;6.63;;;1.95;;
80987;SDS011;70452;39.386;-3.210;2023-07-28T00:29:09;11.02;;;2.58;;
80987;SDS011;70452;39.386;-3.210;2023-07-28T00:31:58;9.15;;;2.65;;
80987;SDS011;70452;39.386;-3.210;2023-07-28T00:34:35;9.77;;;2.30;;
80987;SDS011;70452;39.386;-3.210;2023-07-28T00:37:06;10.90;;;2.28;;
80987;SDS011;70452;39.386;-3.210;2023-07-28T00:39:43;14.10;;;2.78;;
80987;SDS011;70452;39.386;-3.210;2023-07-28T00:42:13;11.65;;;3.10;;
80987;SDS011;70452;39.386;-3.210;2023-07-28T00:44:48;11.73;;;2.47;;
80987;SDS011;70452;39.386;-3.210;2023-07-28T00:47:26;9.57;;;2.33;;
80987;SDS011;70452;39.386;-3.210;2023-07-28T00:50:00;12.85;;;2.83;;
80987;SDS011;70452;39.386;-3.210;2023-07-28T00:52:42;9.82;;;2.60;;
80987;SDS011;70452;39.386;-3.210;2023-07-28T00:55:14;11.65;;;2.20;;
80987;SDS011;70452;39.386;-3.210;2023-07-28T00:57:58;12.90;;;2.50;;
80987;SDS011;70452;39.386;-3.210;2023-07-28T01:00:53;15.23;;;2.80;;
80987;SDS011;70452;39.386;-3.210;2023-07-28T01:03:28;12.50;;;2.67;;
80987;SDS011;70452;39.386;-3.210;2023-07-28T01:12:05;10.27;;;2.90;;
80987;SDS011;70452;39.386;-3.210;2023-07-28T01:14:39;11.38;;;2.30;;
80987;SDS011;70452;39.386;-3.210;2023-07-28T01:17:22;7.47;;;2.22;;
80987;SDS011;70452;39.386;-3.210;2023-07-28T01:19:49;6.70;;;2.33;;
80987;SDS011;70452;39.386;-3.210;2023-07-28T01:22:30;10.68;;;3.22;;
80987;SDS011;70452;39.386;-3.210;2023-07-28T01:28:00;10.85;;;2.75;;
80987;SDS011;70452;39.386;-3.210;2023-07-28T01:30:36;8.70;;;3.03;;
80987;SDS011;70452;39.386;-3.210;2023-07-28T01:33:10;8.25;;;2.28;;
80987;SDS011;70452;39.386;-3.210;2023-07-28T01:36:05;7.40;;;1.98;;
80987;SDS011;70452;39.386;-3.210;2023-07-28T01:38:54;8.40;;;2.22;;
80987;SDS011;70452;39.386;-3.210;2023-07-28T01:41:36;10.13;;;2.30;;
80987;SDS011;70452;39.386;-3.210;2023-07-28T01:44:19;8.50;;;2.20;;
80987;SDS011;70452;39.386;-3.210;2023-07-28T01:46:55;10.55;;;2.17;;
80987;SDS011;70452;39.386;-3.210;2023-07-28T01:49:33;10.00;;;2.53;;
80987;SDS011;70452;39.386;-3.210;2023-07-28T01:52:02;8.75;;;2.63;;
80987;SDS011;70452;39.386;-3.210;2023-07-28T01:57:46;11.25;;;2.60;;
80987;SDS011;70452;39.386;-3.210;2023-07-28T02:00:24;6.78;;;1.98;;
80987;SDS011;70452;39.386;-3.210;2023-07-28T02:03:10;8.85;;;2.25;;
80987;SDS011;70452;39.386;-3.210;2023-07-28T02:05:45;9.75;;;2.35;;
80987;SDS011;70452;39.386;-3.210;2023-07-28T02:08:13;9.82;;;2.10;;
80987;SDS011;70452;39.386;-3.210;2023-07-28T02:10:48;8.90;;;2.30;;
80987;SDS011;70452;39.386;-3.210;2023-07-28T02:13:18;7.70;;;1.92;;
80987;SDS011;70452;39.386;-3.210;2023-07-28T02:16:02;7.47;;;2.00;;
80987;SDS011;70452;39.386;-3.210;2023-07-28T02:18:39;9.43;;;2.00;;
80987;SDS011;70452;39.386;-3.210;2023-07-28T02:21:23;10.43;;;3.15;;
80987;SDS011;70452;39.386;-3.210;2023-07-28T02:23:59;6.82;;;2.00;;
80987;SDS011;70452;39.386;-3.210;2023-07-28T02:26:37;8.65;;;2.72;;
80987;SDS011;70452;39.386;-3.210;2023-07-28T02:29:17;9.57;;;2.55;;
80987;SDS011;70452;39.386;-3.210;2023-07-28T02:31:55;7.65;;;2.15;;
80987;SDS011;70452;39.386;-3.210;2023-07-28T02:34:29;9.20;;;2.17;;
80987;SDS011;70452;39.386;-3.210;2023-07-28T02:37:04;8.02;;;1.90;;
80987;SDS011;70452;39.386;-3.210;2023-07-28T02:39:37;10.80;;;2.22;;
80987;SDS011;70452;39.386;-3.210;2023-07-28T02:42:17;17.42;;;2.85;;
80987;SDS011;70452;39.386;-3.210;2023-07-28T02:45:03;7.85;;;2.13;;
80987;SDS011;70452;39.386;-3.210;2023-07-28T02:47:46;10.10;;;1.98;;
80987;SDS011;70452;39.386;-3.210;2023-07-28T02:50:30;8.80;;;2.67;;
80987;SDS011;70452;39.386;-3.210;2023-07-28T02:53:10;10.45;;;2.20;;
80987;SDS011;70452;39.386;-3.210;2023-07-28T02:55:51;6.22;;;1.63;;
80987;SDS011;70452;39.386;-3.210;2023-07-28T02:58:33;6.72;;;2.08;;
80987;SDS011;70452;39.386;-3.210;2023-07-28T03:04:09;9.05;;;1.95;;
80987;SDS011;70452;39.386;-3.210;2023-07-28T03:07:04;7.70;;;1.80;;
80987;SDS011;70452;39.386;-3.210;2023-07-28T03:09:36;11.52;;;1.92;;
80987;SDS011;70452;39.386;-3.210;2023-07-28T03:12:12;10.50;;;2.45;;
80987;SDS011;70452;39.386;-3.210;2023-07-28T03:14:51;7.10;;;1.70;;
80987;SDS011;70452;39.386;-3.210;2023-07-28T03:17:17;8.55;;;2.03;;
80987;SDS011;70452;39.386;-3.210;2023-07-28T03:19:56;10.30;;;1.67;;
80987;SDS011;70452;39.386;-3.210;2023-07-28T03:22:40;8.68;;;2.20;;
80987;SDS011;70452;39.386;-3.210;2023-07-28T03:25:36;8.90;;;2.50;;
80987;SDS011;70452;39.386;-3.210;2023-07-28T03:28:11;9.82;;;1.90;;
80987;SDS011;70452;39.386;-3.210;2023-07-28T03:30:48;7.57;;;1.88;;
80987;SDS011;70452;39.386;-3.210;2023-07-28T03:33:34;11.75;;;3.42;;
80987;SDS011;70452;39.386;-3.210;2023-07-28T03:36:08;10.63;;;3.30;;
80987;SDS011;70452;39.386;-3.210;2023-07-28T03:41:38;10.38;;;1.80;;
80987;SDS011;70452;39.386;-3.210;2023-07-28T03:44:15;7.90;;;2.17;;
80987;SDS011;70452;39.386;-3.210;2023-07-28T03:46:57;6.57;;;1.67;;
80987;SDS011;70452;39.386;-3.210;2023-07-28T03:49:36;8.13;;;2.75;;
80987;SDS011;70452;39.386;-3.210;2023-07-28T03:54:55;8.18;;;2.22;;
80987;SDS011;70452;39.386;-3.210;2023-07-28T03:57:38;8.40;;;1.90;;
80987;SDS011;70452;39.386;-3.210;2023-07-28T04:03:24;8.65;;;2.22;;
80987;SDS011;70452;39.386;-3.210;2023-07-28T04:06:04;8.05;;;2.17;;
80987;SDS011;70452;39.386;-3.210;2023-07-28T04:08:42;7.13;;;2.10;;
80987;SDS011;70452;39.386;-3.210;2023-07-28T04:11:22;7.85;;;2.50;;
80987;SDS011;70452;39.386;-3.210;2023-07-28T04:13:54;7.70;;;2.38;;
80987;SDS011;70452;39.386;-3.210;2023-07-28T04:16:47;8.73;;;2.25;;
80987;SDS011;70452;39.386;-3.210;2023-07-28T04:19:19;10.98;;;2.22;;
80987;SDS011;70452;39.386;-3.210;2023-07-28T04:21:50;8.52;;;2.50;;
80987;SDS011;70452;39.386;-3.210;2023-07-28T04:24:31;10.27;;;2.00;;
80987;SDS011;70452;39.386;-3.210;2023-07-28T04:26:58;6.30;;;2.10;;
80987;SDS011;70452;39.386;-3.210;2023-07-28T04:29:30;10.70;;;2.55;;
80987;SDS011;70452;39.386;-3.210;2023-07-28T04:32:09;11.32;;;2.47;;
80987;SDS011;70452;39.386;-3.210;2023-07-28T04:34:55;11.50;;;2.47;;
80987;SDS011;70452;39.386;-3.210;2023-07-28T04:37:31;10.55;;;2.30;;
80987;SDS011;70452;39.386;-3.210;2023-07-28T04:40:38;7.28;;;2.05;;
80987;SDS011;70452;39.386;-3.210;2023-07-28T04:43:23;8.25;;;2.10;;
80987;SDS011;70452;39.386;-3.210;2023-07-28T04:45:52;12.85;;;2.60;;
80987;SDS011;70452;39.386;-3.210;2023-07-28T04:48:43;10.43;;;2.03;;
80987;SDS011;70452;39.386;-3.210;2023-07-28T04:51:23;8.63;;;2.30;;
80987;SDS011;70452;39.386;-3.210;2023-07-28T04:53:57;8.38;;;1.70;;
80987;SDS011;70452;39.386;-3.210;2023-07-28T04:56:29;9.20;;;2.45;;
80987;SDS011;70452;39.386;-3.210;2023-07-28T04:59:02;8.02;;;2.17;;
80987;SDS011;70452;39.386;-3.210;2023-07-28T05:01:37;8.30;;;2.53;;
80987;SDS011;70452;39.386;-3.210;2023-07-28T05:07:14;8.75;;;2.20;;
80987;SDS011;70452;39.386;-3.210;2023-07-28T05:09:52;8.30;;;2.38;;
80987;SDS011;70452;39.386;-3.210;2023-07-28T05:12:30;6.55;;;1.90;;
80987;SDS011;70452;39.386;-3.210;2023-07-28T05:15:07;13.32;;;2.08;;
80987;SDS011;70452;39.386;-3.210;2023-07-28T05:17:47;10.88;;;2.10;;
80987;SDS011;70452;39.386;-3.210;2023-07-28T05:20:26;10.00;;;2.42;;
80987;SDS011;70452;39.386;-3.210;2023-07-28T05:23:02;7.75;;;2.17;;
80987;SDS011;70452;39.386;-3.210;2023-07-28T05:25:38;9.52;;;2.20;;
80987;SDS011;70452;39.386;-3.210;2023-07-28T05:28:16;9.52;;;1.98;;
80987;SDS011;70452;39.386;-3.210;2023-07-28T05:30:42;8.65;;;2.53;;
80987;SDS011;70452;39.386;-3.210;2023-07-28T05:33:10;9.30;;;2.33;;
80987;SDS011;70452;39.386;-3.210;2023-07-28T05:35:45;7.05;;;2.08;;
80987;SDS011;70452;39.386;-3.210;2023-07-28T05:38:39;8.32;;;2.40;;
80987;SDS011;70452;39.386;-3.210;2023-07-28T05:41:36;9.27;;;2.45;;
80987;SDS011;70452;39.386;-3.210;2023-07-28T05:44:05;11.75;;;3.85;;
80987;SDS011;70452;39.386;-3.210;2023-07-28T05:46:43;11.52;;;2.85;;
80987;SDS011;70452;39.386;-3.210;2023-07-28T05:49:21;10.07;;;3.03;;
80987;SDS011;70452;39.386;-3.210;2023-07-28T05:51:59;11.60;;;2.85;;
80987;SDS011;70452;39.386;-3.210;2023-07-28T05:54:44;11.68;;;2.35;;
80987;SDS011;70452;39.386;-3.210;2023-07-28T05:57:31;10.70;;;2.90;;
80987;SDS011;70452;39.386;-3.210;2023-07-28T06:00:09;12.27;;;2.65;;
80987;SDS011;70452;39.386;-3.210;2023-07-28T06:05:36;7.63;;;2.47;;
80987;SDS011;70452;39.386;-3.210;2023-07-28T06:08:09;10.30;;;2.72;;
80987;SDS011;70452;39.386;-3.210;2023-07-28T06:10:39;11.05;;;2.92;;
80987;SDS011;70452;39.386;-3.210;2023-07-28T06:13:23;11.60;;;3.35;;
80987;SDS011;70452;39.386;-3.210;2023-07-28T06:16:07;10.57;;;3.60;;
80987;SDS011;70452;39.386;-3.210;2023-07-28T06:18:44;9.23;;;3.53;;
80987;SDS011;70452;39.386;-3.210;2023-07-28T06:21:15;11.60;;;3.00;;
80987;SDS011;70452;39.386;-3.210;2023-07-28T06:23:55;9.27;;;3.50;;
80987;SDS011;70452;39.386;-3.210;2023-07-28T06:27:01;8.60;;;3.17;;
80987;SDS011;70452;39.386;-3.210;2023-07-28T06:29:46;18.05;;;3.30;;
80987;SDS011;70452;39.386;-3.210;2023-07-28T06:32:39;10.73;;;3.20;;
80987;SDS011;70452;39.386;-3.210;2023-07-28T06:35:15;14.57;;;3.88;;
80987;SDS011;70452;39.386;-3.210;2023-07-28T06:37:56;11.82;;;3.60;;
80987;SDS011;70452;39.386;-3.210;2023-07-28T06:40:50;12.05;;;3.85;;
80987;SDS011;70452;39.386;-3.210;2023-07-28T06:43:31;10.77;;;3.47;;
80987;SDS011;70452;39.386;-3.210;2023-07-28T06:46:13;8.13;;;3.97;;
80987;SDS011;70452;39.386;-3.210;2023-07-28T06:51:41;11.40;;;3.72;;
80987;SDS011;70452;39.386;-3.210;2023-07-28T06:54:27;10.40;;;3.22;;
80987;SDS011;70452;39.386;-3.210;2023-07-28T06:57:17;9.60;;;4.07;;
80987;SDS011;70452;39.386;-3.210;2023-07-28T07:00:01;13.18;;;5.03;;
80987;SDS011;70452;39.386;-3.210;2023-07-28T07:02:59;15.38;;;3.05;;
80987;SDS011;70452;39.386;-3.210;2023-07-28T07:05:39;12.48;;;3.72;;
80987;SDS011;70452;39.386;-3.210;2023-07-28T07:08:23;13.50;;;3.47;;
80987;SDS011;70452;39.386;-3.210;2023-07-28T07:11:15;17.25;;;5.03;;
80987;SDS011;70452;39.386;-3.210;2023-07-28T07:13:44;17.23;;;5.22;;
80987;SDS011;70452;39.386;-3.210;2023-07-28T07:16:35;18.00;;;4.22;;
80987;SDS011;70452;39.386;-3.210;2023-07-28T07:19:14;12.55;;;4.25;;
80987;SDS011;70452;39.386;-3.210;2023-07-28T07:21:48;12.65;;;3.42;;
80987;SDS011;70452;39.386;-3.210;2023-07-28T07:24:49;14.25;;;4.45;;
80987;SDS011;70452;39.386;-3.210;2023-07-28T07:27:26;14.35;;;3.75;;
80987;SDS011;70452;39.386;-3.210;2023-07-28T07:29:58;10.25;;;4.18;;
80987;SDS011;70452;39.386;-3.210;2023-07-28T07:32:38;14.35;;;5.88;;
80987;SDS011;70452;39.386;-3.210;2023-07-28T07:35:13;15.00;;;5.55;;
80987;SDS011;70452;39.386;-3.210;2023-07-28T07:37:52;14.95;;;4.40;;
80987;SDS011;70452;39.386;-3.210;2023-07-28T07:40:26;15.60;;;3.97;;
80987;SDS011;70452;39.386;-3.210;2023-07-28T07:43:06;16.25;;;5.13;;
80987;SDS011;70452;39.386;-3.210;2023-07-28T07:45:49;13.35;;;4.15;;
80987;SDS011;70452;39.386;-3.210;2023-07-28T07:48:33;21.15;;;5.15;;
80987;SDS011;70452;39.386;-3.210;2023-07-28T07:51:08;23.38;;;4.68;;
80987;SDS011;70452;39.386;-3.210;2023-07-28T07:53:48;16.52;;;4.57;;
80987;SDS011;70452;39.386;-3.210;2023-07-28T07:56:46;24.38;;;8.70;;
80987;SDS011;70452;39.386;-3.210;2023-07-28T07:59:31;21.38;;;5.25;;
80987;SDS011;70452;39.386;-3.210;2023-07-28T08:02:14;17.95;;;5.47;;
80987;SDS011;70452;39.386;-3.210;2023-07-28T08:04:58;19.27;;;4.78;;
80987;SDS011;70452;39.386;-3.210;2023-07-28T08:07:37;19.10;;;6.28;;
80987;SDS011;70452;39.386;-3.210;2023-07-28T08:10:22;16.10;;;4.65;;
80987;SDS011;70452;39.386;-3.210;2023-07-28T08:13:09;11.52;;;3.60;;
80987;SDS011;70452;39.386;-3.210;2023-07-28T08:16:01;19.48;;;4.22;;
80987;SDS011;70452;39.386;-3.210;2023-07-28T08:18:42;18.42;;;4.18;;
80987;SDS011;70452;39.386;-3.210;2023-07-28T08:21:21;16.45;;;4.30;;
80987;SDS011;70452;39.386;-3.210;2023-07-28T08:24:14;11.80;;;4.65;;
80987;SDS011;70452;39.386;-3.210;2023-07-28T08:26:52;16.83;;;4.55;;
80987;SDS011;70452;39.386;-3.210;2023-07-28T08:29:27;9.65;;;3.13;;
80987;SDS011;70452;39.386;-3.210;2023-07-28T08:32:07;14.07;;;4.72;;
80987;SDS011;70452;39.386;-3.210;2023-07-28T08:34:39;14.50;;;5.68;;
80987;SDS011;70452;39.386;-3.210;2023-07-28T08:37:14;16.83;;;4.22;;
80987;SDS011;70452;39.386;-3.210;2023-07-28T08:39:43;13.23;;;5.05;;
80987;SDS011;70452;39.386;-3.210;2023-07-28T08:42:15;15.68;;;5.47;;
80987;SDS011;70452;39.386;-3.210;2023-07-28T08:44:51;14.25;;;4.07;;
80987;SDS011;70452;39.386;-3.210;2023-07-28T08:47:35;13.48;;;5.20;;
80987;SDS011;70452;39.386;-3.210;2023-07-28T08:50:03;13.82;;;4.57;;
80987;SDS011;70452;39.386;-3.210;2023-07-28T08:52:56;14.48;;;5.35;;
80987;SDS011;70452;39.386;-3.210;2023-07-28T08:55:32;16.52;;;5.10;;
80987;SDS011;70452;39.386;-3.210;2023-07-28T08:58:17;17.80;;;6.18;;
80987;SDS011;70452;39.386;-3.210;2023-07-28T09:00:51;11.75;;;6.38;;
80987;SDS011;70452;39.386;-3.210;2023-07-28T09:03:29;17.15;;;5.47;;
80987;SDS011;70452;39.386;-3.210;2023-07-28T09:06:12;13.90;;;4.88;;
80987;SDS011;70452;39.386;-3.210;2023-07-28T09:08:55;12.80;;;5.10;;
80987;SDS011;70452;39.386;-3.210;2023-07-28T09:11:28;11.77;;;3.20;;
80987;SDS011;70452;39.386;-3.210;2023-07-28T09:14:01;11.23;;;4.32;;
80987;SDS011;70452;39.386;-3.210;2023-07-28T09:16:42;9.63;;;4.78;;
80987;SDS011;70452;39.386;-3.210;2023-07-28T09:19:14;11.45;;;4.57;;
80987;SDS011;70452;39.386;-3.210;2023-07-28T09:21:56;10.68;;;5.05;;
80987;SDS011;70452;39.386;-3.210;2023-07-28T09:24:34;10.27;;;4.20;;
80987;SDS011;70452;39.386;-3.210;2023-07-28T09:27:12;12.77;;;3.88;;
80987;SDS011;70452;39.386;-3.210;2023-07-28T09:30:00;12.10;;;4.13;;
80987;SDS011;70452;39.386;-3.210;2023-07-28T09:32:46;11.30;;;3.78;;
80987;SDS011;70452;39.386;-3.210;2023-07-28T09:35:29;21.38;;;4.93;;
80987;SDS011;70452;39.386;-3.210;2023-07-28T09:40:53;9.63;;;3.55;;
80987;SDS011;70452;39.386;-3.210;2023-07-28T09:43:46;8.70;;;3.45;;
80987;SDS011;70452;39.386;-3.210;2023-07-28T09:46:17;10.40;;;4.47;;
80987;SDS011;70452;39.386;-3.210;2023-07-28T09:49:05;14.15;;;5.13;;
80987;SDS011;70452;39.386;-3.210;2023-07-28T09:51:43;9.50;;;4.18;;
80987;SDS011;70452;39.386;-3.210;2023-07-28T09:54:20;9.73;;;3.67;;
80987;SDS011;70452;39.386;-3.210;2023-07-28T09:57:03;8.63;;;4.20;;
80987;SDS011;70452;39.386;-3.210;2023-07-28T09:59:54;12.65;;;5.10;;
80987;SDS011;70452;39.386;-3.210;2023-07-28T10:02:49;14.48;;;4.97;;
80987;SDS011;70452;39.386;-3.210;2023-07-28T10:05:33;9.82;;;3.80;;
80987;SDS011;70452;39.386;-3.210;2023-07-28T10:08:07;11.77;;;3.90;;
80987;SDS011;70452;39.386;-3.210;2023-07-28T10:10:48;12.90;;;5.88;;
80987;SDS011;70452;39.386;-3.210;2023-07-28T10:13:33;9.52;;;4.90;;
80987;SDS011;70452;39.386;-3.210;2023-07-28T10:16:40;9.27;;;3.70;;
80987;SDS011;70452;39.386;-3.210;2023-07-28T10:19:20;10.05;;;4.25;;
80987;SDS011;70452;39.386;-3.210;2023-07-28T10:22:06;10.57;;;5.10;;
80987;SDS011;70452;39.386;-3.210;2023-07-28T10:25:00;8.70;;;5.00;;
80987;SDS011;70452;39.386;-3.210;2023-07-28T10:27:38;10.27;;;4.07;;
80987;SDS011;70452;39.386;-3.210;2023-07-28T10:30:11;18.15;;;4.00;;
80987;SDS011;70452;39.386;-3.210;2023-07-28T10:32:52;13.25;;;5.25;;
80987;SDS011;70452;39.386;-3.210;2023-07-28T10:35:26;11.02;;;4.80;;
80987;SDS011;70452;39.386;-3.210;2023-07-28T10:38:02;11.50;;;5.32;;
80987;SDS011;70452;39.386;-3.210;2023-07-28T10:41:13;9.60;;;3.33;;
80987;SDS011;70452;39.386;-3.210;2023-07-28T10:43:48;9.35;;;4.18;;
80987;SDS011;70452;39.386;-3.210;2023-07-28T10:46:26;10.02;;;5.18;;
80987;SDS011;70452;39.386;-3.210;2023-07-28T10:48:57;10.75;;;5.18;;
80987;SDS011;70452;39.386;-3.210;2023-07-28T10:51:45;10.82;;;3.90;;
80987;SDS011;70452;39.386;-3.210;2023-07-28T10:54:17;11.77;;;4.55;;
80987;SDS011;70452;39.386;-3.210;2023-07-28T10:57:06;10.35;;;4.22;;
80987;SDS011;70452;39.386;-3.210;2023-07-28T10:59:46;9.38;;;4.95;;
80987;SDS011;70452;39.386;-3.210;2023-07-28T11:02:15;12.43;;;4.07;;
80987;SDS011;70452;39.386;-3.210;2023-07-28T11:04:58;26.83;;;6.93;;
80987;SDS011;70452;39.386;-3.210;2023-07-28T11:07:45;10.57;;;5.35;;
80987;SDS011;70452;39.386;-3.210;2023-07-28T11:10:20;11.55;;;4.93;;
80987;SDS011;70452;39.386;-3.210;2023-07-28T11:15:45;10.60;;;4.68;;
80987;SDS011;70452;39.386;-3.210;2023-07-28T11:18:20;8.65;;;4.72;;
80987;SDS011;70452;39.386;-3.210;2023-07-28T11:20:59;10.57;;;4.40;;
80987;SDS011;70452;39.386;-3.210;2023-07-28T11:23:37;8.57;;;4.32;;
80987;SDS011;70452;39.386;-3.210;2023-07-28T11:26:35;11.60;;;3.83;;
80987;SDS011;70452;39.386;-3.210;2023-07-28T11:29:12;9.55;;;5.03;;
80987;SDS011;70452;39.386;-3.210;2023-07-28T11:31:44;7.97;;;3.85;;
80987;SDS011;70452;39.386;-3.210;2023-07-28T11:34:22;11.68;;;4.88;;
80987;SDS011;70452;39.386;-3.210;2023-07-28T11:37:12;10.43;;;4.53;;
80987;SDS011;70452;39.386;-3.210;2023-07-28T11:39:57;8.88;;;3.60;;
80987;SDS011;70452;39.386;-3.210;2023-07-28T11:42:41;6.60;;;3.67;;
80987;SDS011;70452;39.386;-3.210;2023-07-28T11:45:26;11.10;;;4.38;;
80987;SDS011;70452;39.386;-3.210;2023-07-28T11:47:57;11.48;;;3.75;;
80987;SDS011;70452;39.386;-3.210;2023-07-28T11:50:38;7.03;;;3.30;;
80987;SDS011;70452;39.386;-3.210;2023-07-28T11:53:14;10.02;;;4.40;;
80987;SDS011;70452;39.386;-3.210;2023-07-28T11:55:50;11.70;;;3.50;;
80987;SDS011;70452;39.386;-3.210;2023-07-28T11:58:25;7.32;;;3.70;;
80987;SDS011;70452;39.386;-3.210;2023-07-28T12:01:12;9.13;;;3.63;;
80987;SDS011;70452;39.386;-3.210;2023-07-28T12:03:47;10.52;;;5.57;;
80987;SDS011;70452;39.386;-3.210;2023-07-28T12:06:16;9.45;;;3.92;;
80987;SDS011;70452;39.386;-3.210;2023-07-28T12:08:48;21.55;;;12.82;;
80987;SDS011;70452;39.386;-3.210;2023-07-28T12:11:23;13.00;;;5.10;;
80987;SDS011;70452;39.386;-3.210;2023-07-28T12:13:54;26.60;;;15.75;;
80987;SDS011;70452;39.386;-3.210;2023-07-28T12:16:47;14.00;;;6.32;;
80987;SDS011;70452;39.386;-3.210;2023-07-28T12:19:23;10.65;;;5.80;;
80987;SDS011;70452;39.386;-3.210;2023-07-28T12:21:58;10.00;;;4.20;;
80987;SDS011;70452;39.386;-3.210;2023-07-28T12:24:49;10.68;;;4.32;;
80987;SDS011;70452;39.386;-3.210;2023-07-28T12:27:36;8.75;;;4.80;;
80987;SDS011;70452;39.386;-3.210;2023-07-28T12:30:17;9.98;;;3.92;;
80987;SDS011;70452;39.386;-3.210;2023-07-28T12:32:46;9.25;;;3.60;;
80987;SDS011;70452;39.386;-3.210;2023-07-28T12:35:26;8.65;;;3.58;;
80987;SDS011;70452;39.386;-3.210;2023-07-28T12:38:03;8.82;;;4.72;;
80987;SDS011;70452;39.386;-3.210;2023-07-28T12:43:20;7.18;;;2.97;;
80987;SDS011;70452;39.386;-3.210;2023-07-28T12:46:04;10.27;;;3.95;;
80987;SDS011;70452;39.386;-3.210;2023-07-28T12:48:40;12.95;;;4.25;;
80987;SDS011;70452;39.386;-3.210;2023-07-28T12:51:15;10.52;;;3.42;;
80987;SDS011;70452;39.386;-3.210;2023-07-28T12:53:55;10.45;;;3.75;;
80987;SDS011;70452;39.386;-3.210;2023-07-28T12:56:38;9.27;;;3.83;;
80987;SDS011;70452;39.386;-3.210;2023-07-28T12:59:20;7.95;;;3.13;;
80987;SDS011;70452;39.386;-3.210;2023-07-28T13:02:07;8.48;;;3.65;;
80987;SDS011;70452;39.386;-3.210;2023-07-28T13:05:04;7.63;;;3.15;;
80987;SDS011;70452;39.386;-3.210;2023-07-28T13:07:39;7.60;;;3.13;;
80987;SDS011;70452;39.386;-3.210;2023-07-28T13:10:25;7.35;;;3.58;;
80987;SDS011;70452;39.386;-3.210;2023-07-28T13:13:03;8.82;;;3.30;;
80987;SDS011;70452;39.386;-3.210;2023-07-28T13:15:37;7.53;;;3.05;;
80987;SDS011;70452;39.386;-3.210;2023-07-28T13:18:12;7.82;;;4.10;;
80987;SDS011;70452;39.386;-3.210;2023-07-28T13:20:47;6.97;;;3.05;;
80987;SDS011;70452;39.386;-3.210;2023-07-28T13:23:34;6.43;;;2.75;;
80987;SDS011;70452;39.386;-3.210;2023-07-28T13:26:10;8.75;;;3.72;;
80987;SDS011;70452;39.386;-3.210;2023-07-28T13:28:57;8.38;;;3.60;;
80987;SDS011;70452;39.386;-3.210;2023-07-28T13:34:54;9.40;;;3.67;;
80987;SDS011;70452;39.386;-3.210;2023-07-28T13:37:28;8.00;;;3.28;;
80987;SDS011;70452;39.386;-3.210;2023-07-28T13:40:05;8.43;;;2.55;;
80987;SDS011;70452;39.386;-3.210;2023-07-28T13:42:40;8.65;;;2.72;;
80987;SDS011;70452;39.386;-3.210;2023-07-28T13:45:12;7.68;;;3.92;;
80987;SDS011;70452;39.386;-3.210;2023-07-28T13:47:51;6.53;;;2.33;;
80987;SDS011;70452;39.386;-3.210;2023-07-28T13:50:37;9.05;;;3.35;;
80987;SDS011;70452;39.386;-3.210;2023-07-28T13:53:30;7.47;;;3.20;;
80987;SDS011;70452;39.386;-3.210;2023-07-28T13:56:05;10.57;;;4.00;;
80987;SDS011;70452;39.386;-3.210;2023-07-28T13:58:45;7.38;;;2.55;;
80987;SDS011;70452;39.386;-3.210;2023-07-28T14:01:19;8.13;;;4.00;;
80987;SDS011;70452;39.386;-3.210;2023-07-28T14:03:53;6.10;;;3.60;;
80987;SDS011;70452;39.386;-3.210;2023-07-28T14:06:25;6.15;;;2.72;;
80987;SDS011;70452;39.386;-3.210;2023-07-28T14:09:07;9.20;;;3.25;;
80987;SDS011;70452;39.386;-3.210;2023-07-28T14:11:47;7.75;;;2.67;;
80987;SDS011;70452;39.386;-3.210;2023-07-28T14:14:18;10.65;;;4.22;;
80987;SDS011;70452;39.386;-3.210;2023-07-28T14:20:14;13.20;;;3.85;;
80987;SDS011;70452;39.386;-3.210;2023-07-28T14:22:55;6.20;;;2.83;;
80987;SDS011;70452;39.386;-3.210;2023-07-28T14:25:27;9.18;;;3.00;;
80987;SDS011;70452;39.386;-3.210;2023-07-28T14:28:16;6.03;;;2.53;;
80987;SDS011;70452;39.386;-3.210;2023-07-28T14:30:48;6.28;;;2.47;;
80987;SDS011;70452;39.386;-3.210;2023-07-28T14:33:21;6.55;;;2.40;;
80987;SDS011;70452;39.386;-3.210;2023-07-28T14:35:55;7.53;;;1.88;;
80987;SDS011;70452;39.386;-3.210;2023-07-28T14:38:30;8.70;;;2.20;;
80987;SDS011;70452;39.386;-3.210;2023-07-28T14:41:05;8.05;;;3.45;;
80987;SDS011;70452;39.386;-3.210;2023-07-28T14:43:52;7.43;;;3.20;;
80987;SDS011;70452;39.386;-3.210;2023-07-28T14:46:23;6.95;;;3.17;;
80987;SDS011;70452;39.386;-3.210;2023-07-28T14:49:02;7.82;;;2.20;;
80987;SDS011;70452;39.386;-3.210;2023-07-28T14:51:36;6.50;;;2.83;;
80987;SDS011;70452;39.386;-3.210;2023-07-28T14:54:14;6.30;;;2.95;;
80987;SDS011;70452;39.386;-3.210;2023-07-28T14:56:51;7.43;;;3.35;;
80987;SDS011;70452;39.386;-3.210;2023-07-28T14:59:29;6.05;;;3.20;;
80987;SDS011;70452;39.386;-3.210;2023-07-28T15:02:07;7.18;;;3.63;;
80987;SDS011;70452;39.386;-3.210;2023-07-28T15:04:50;6.20;;;2.28;;
80987;SDS011;70452;39.386;-3.210;2023-07-28T15:07:21;7.68;;;3.40;;
80987;SDS011;70452;39.386;-3.210;2023-07-28T15:10:34;7.45;;;2.55;;
80987;SDS011;70452;39.386;-3.210;2023-07-28T15:13:08;7.07;;;3.70;;
80987;SDS011;70452;39.386;-3.210;2023-07-28T15:15:43;5.97;;;2.60;;
80987;SDS011;70452;39.386;-3.210;2023-07-28T15:18:26;6.32;;;2.65;;
80987;SDS011;70452;39.386;-3.210;2023-07-28T15:21:03;7.35;;;3.00;;
80987;SDS011;70452;39.386;-3.210;2023-07-28T15:23:58;6.82;;;3.25;;
80987;SDS011;70452;39.386;-3.210;2023-07-28T15:26:48;5.85;;;2.65;;
80987;SDS011;70452;39.386;-3.210;2023-07-28T15:29:25;7.90;;;2.97;;
80987;SDS011;70452;39.386;-3.210;2023-07-28T15:32:00;6.88;;;2.72;;
80987;SDS011;70452;39.386;-3.210;2023-07-28T15:34:38;10.00;;;2.83;;
80987;SDS011;70452;39.386;-3.210;2023-07-28T15:37:45;6.20;;;2.67;;
80987;SDS011;70452;39.386;-3.210;2023-07-28T15:40:19;9.93;;;3.28;;
80987;SDS011;70452;39.386;-3.210;2023-07-28T15:42:57;7.00;;;2.60;;
80987;SDS011;70452;39.386;-3.210;2023-07-28T15:48:33;7.30;;;3.88;;
80987;SDS011;70452;39.386;-3.210;2023-07-28T15:51:11;6.78;;;3.47;;
80987;SDS011;70452;39.386;-3.210;2023-07-28T15:53:54;7.30;;;3.13;;
80987;SDS011;70452;39.386;-3.210;2023-07-28T15:56:45;7.72;;;3.33;;
80987;SDS011;70452;39.386;-3.210;2023-07-28T15:59:14;8.40;;;2.85;;
80987;SDS011;70452;39.386;-3.210;2023-07-28T16:01:55;8.13;;;3.53;;
80987;SDS011;70452;39.386;-3.210;2023-07-28T16:04:40;6.50;;;3.28;;
80987;SDS011;70452;39.386;-3.210;2023-07-28T16:07:16;7.38;;;3.38;;
80987;SDS011;70452;39.386;-3.210;2023-07-28T16:09:47;7.78;;;3.45;;
80987;SDS011;70452;39.386;-3.210;2023-07-28T16:12:22;6.57;;;3.45;;
80987;SDS011;70452;39.386;-3.210;2023-07-28T16:14:58;8.45;;;4.03;;
80987;SDS011;70452;39.386;-3.210;2023-07-28T16:17:35;8.93;;;3.55;;
80987;SDS011;70452;39.386;-3.210;2023-07-28T16:20:14;7.55;;;3.63;;
80987;SDS011;70452;39.386;-3.210;2023-07-28T16:22:50;7.60;;;3.75;;
80987;SDS011;70452;39.386;-3.210;2023-07-28T16:25:49;7.38;;;2.95;;
80987;SDS011;70452;39.386;-3.210;2023-07-28T16:28:25;7.13;;;3.03;;
80987;SDS011;70452;39.386;-3.210;2023-07-28T16:31:08;6.53;;;2.53;;
80987;SDS011;70452;39.386;-3.210;2023-07-28T16:33:40;7.10;;;3.40;;